Freemansburg, Pennsylvania
Current Conditions -  °F | °C
As of 4:51 AM on Thursday 23 Oct 2014 (Local Time) from KABE Reporting Station
Overcast Overcast  
Wind Chill: 51°   Ceiling: 3600
Heat Index: 51°   Visibility: 10mi
Dew Point: 43°   Wind: 10mph
Humidity: 74%   Direction: 340°NNW
Pressure: 29.79"   Gusts: 22mph
Location:  40.6607°N, 75.3902°W
Report Text: KABE 230851Z 34009G19KT 10SM OVC036 11/06 A2979 RMK AO2 RAE0752B08E23 SLP088 P0000 60000 T01060061 58002
Loading
Personal Weather Stations






























Interactive Weather Map
Tropical Storm Tracking
New forecast layout! Learn more

10-Day Weather Forecast

Advertisements
Track Severe Weather on mobile